Terminal Aerodrome Forecast
Issued by NWS Missoula, MT

Home | Current Version | Previous Version | Text Only | Print | Product List | Glossary On
Versions: 1 2 3 4 5 6 7 8 9 10 11 12 13 14 15 16 17 18 19 20 21 22 23
000
FTUS45 KMSO 271736
TAFGPI
TAF
KGPI 271736Z 2718/2818 03005KT 3SM -SN FEW019 OVC040
     FM272000 03008KT P6SM VCSH OVC050
     FM272300 19005KT 3SM -SHSN OVC030
     FM281000 VRB03KT 2SM -SN BKN015 OVC020=

USA.gov is the U.S. government's official web portal to all federal, state and local government web resources and services.